createdAt,value
2019-04-16T00:00:20.120Z,12.67
2019-04-16T00:01:17.358Z,12.33
2019-04-16T00:02:06.215Z,11.30
2019-04-16T00:02:52.542Z,12.17
2019-04-16T00:03:27.622Z,11.83
2019-04-16T00:04:09.259Z,12.10
2019-04-16T00:05:03.677Z,12.10
2019-04-16T00:05:58.459Z,12.10
2019-04-16T00:06:52.816Z,12.27
2019-04-16T00:07:42.111Z,12.33
2019-04-16T00:08:27.624Z,11.77
2019-04-16T00:09:00.633Z,12.17
2019-04-16T00:09:54.758Z,12.00
2019-04-16T00:10:44.252Z,12.40
2019-04-16T00:11:30.127Z,12.80
2019-04-16T00:12:18.050Z,12.00
2019-04-16T00:13:11.060Z,11.73
2019-04-16T00:13:50.738Z,12.00
2019-04-16T00:14:28.808Z,11.80
2019-04-16T00:15:03.986Z,11.60
2019-04-16T00:15:41.305Z,11.60
2019-04-16T00:16:17.243Z,12.40
2019-04-16T00:16:52.310Z,12.33
2019-04-16T00:17:27.389Z,12.33
2019-04-16T00:18:02.724Z,12.03
2019-04-16T00:18:37.802Z,12.10
2019-04-16T00:19:12.939Z,11.60
2019-04-16T00:19:48.015Z,11.63
2019-04-16T00:20:23.068Z,12.60
2019-04-16T00:21:23.503Z,11.57
2019-04-16T00:22:12.333Z,12.33
2019-04-16T00:23:02.359Z,12.13
2019-04-16T00:23:55.392Z,11.57
2019-04-16T00:24:33.176Z,12.77
2019-04-16T00:25:08.252Z,11.80
2019-04-16T00:25:43.381Z,12.60
2019-04-16T00:26:18.798Z,12.37
2019-04-16T00:26:58.099Z,12.77
2019-04-16T00:27:32.362Z,12.00
2019-04-16T00:28:07.429Z,11.60
2019-04-16T00:28:42.500Z,12.40
2019-04-16T00:29:17.570Z,12.07
2019-04-16T00:29:52.681Z,12.03
2019-04-16T00:30:28.026Z,11.60
2019-04-16T00:31:04.740Z,11.77
2019-04-16T00:31:39.986Z,12.00
2019-04-16T00:32:19.799Z,11.90
2019-04-16T00:32:54.856Z,12.10
2019-04-16T00:33:29.909Z,12.37
2019-04-16T00:34:05.002Z,11.60
2019-04-16T00:34:44.545Z,12.40
2019-04-16T00:35:16.841Z,12.23
2019-04-16T00:35:51.902Z,11.87
2019-04-16T00:36:26.944Z,12.17
2019-04-16T00:37:02.001Z,12.23
2019-04-16T00:37:37.055Z,11.93
2019-04-16T00:38:12.124Z,12.50
2019-04-16T00:38:47.183Z,12.27
2019-04-16T00:39:24.803Z,12.17
2019-04-16T00:39:59.034Z,12.70
2019-04-16T00:40:34.111Z,12.17
2019-04-16T00:41:09.156Z,12.80
2019-04-16T00:41:45.284Z,12.33
2019-04-16T00:42:20.401Z,12.07
2019-04-16T00:42:55.667Z,12.33
2019-04-16T00:43:30.764Z,11.30
2019-04-16T00:44:05.824Z,12.50
2019-04-16T00:44:40.901Z,12.37
2019-04-16T00:45:16.611Z,11.83
2019-04-16T00:45:51.659Z,11.70
2019-04-16T00:46:26.711Z,12.20
2019-04-16T00:47:01.795Z,12.43
2019-04-16T00:47:36.879Z,11.53
2019-04-16T00:48:12.292Z,11.87
2019-04-16T00:48:47.600Z,12.80
2019-04-16T00:49:26.339Z,12.13
2019-04-16T00:49:59.643Z,11.47
2019-04-16T00:50:34.991Z,11.60
2019-04-16T00:51:10.076Z,12.17
2019-04-16T00:51:45.410Z,12.97
2019-04-16T00:52:20.716Z,11.80
2019-04-16T00:52:55.940Z,11.33
2019-04-16T00:53:32.299Z,12.03
2019-04-16T00:54:10.356Z,12.23
2019-04-16T00:54:44.153Z,12.23
2019-04-16T00:55:19.220Z,13.00
2019-04-16T00:55:54.284Z,12.17
2019-04-16T00:56:30.418Z,12.63
2019-04-16T00:57:05.793Z,12.27
2019-04-16T00:57:41.930Z,12.07
2019-04-16T00:58:19.514Z,12.40
2019-04-16T00:58:53.822Z,12.03
2019-04-16T00:59:28.895Z,11.90
2019-04-16T01:00:04.455Z,12.03
2019-04-16T01:00:39.966Z,12.20
2019-04-16T01:01:15.054Z,11.33
2019-04-16T01:01:50.115Z,12.43
2019-04-16T01:02:25.510Z,11.60
2019-04-16T01:03:00.595Z,11.70
2019-04-16T01:03:35.643Z,12.30
2019-04-16T01:04:10.709Z,12.50
2019-04-16T01:04:45.872Z,13.03
2019-04-16T01:05:20.921Z,11.67
2019-04-16T01:05:56.252Z,11.77
2019-04-16T01:06:31.529Z,10.40
2019-04-16T01:07:06.801Z,11.33
2019-04-16T01:07:41.927Z,11.43
2019-04-16T01:08:17.235Z,12.07
2019-04-16T01:08:54.789Z,12.23
2019-04-16T01:09:30.313Z,11.63
2019-04-16T01:10:05.393Z,12.30
2019-04-16T01:10:40.599Z,11.87
2019-04-16T01:11:15.820Z,12.07
2019-04-16T01:11:51.254Z,12.90
2019-04-16T01:12:26.639Z,12.33
2019-04-16T01:13:01.698Z,11.63
2019-04-16T01:13:37.355Z,11.70
2019-04-16T01:14:12.420Z,11.40
2019-04-16T01:14:47.490Z,12.57
2019-04-16T01:15:22.568Z,12.10
2019-04-16T01:16:02.685Z,11.97
2019-04-16T01:16:34.423Z,11.83
2019-04-16T01:17:09.728Z,12.43
2019-04-16T01:17:45.042Z,11.50
2019-04-16T01:18:20.491Z,11.57
2019-04-16T01:18:55.554Z,11.57
2019-04-16T01:19:30.628Z,11.30
2019-04-16T01:20:06.375Z,12.07
2019-04-16T01:20:43.203Z,11.83
2019-04-16T01:21:18.653Z,11.67
2019-04-16T01:21:53.739Z,12.03
2019-04-16T01:22:29.127Z,11.93
2019-04-16T01:23:04.200Z,11.37
2019-04-16T01:23:39.276Z,11.97
2019-04-16T01:24:14.338Z,11.50
2019-04-16T01:24:52.579Z,11.97
2019-04-16T01:25:26.163Z,11.70
2019-04-16T01:26:01.537Z,12.80
2019-04-16T01:26:37.019Z,12.27
2019-04-16T01:27:12.075Z,11.40
2019-04-16T01:27:50.796Z,11.90
2019-04-16T01:28:29.394Z,13.00
2019-04-16T01:29:10.370Z,11.70
2019-04-16T01:29:45.737Z,12.30
2019-04-16T01:30:36.333Z,12.37
2019-04-16T01:31:21.044Z,11.90
2019-04-16T01:32:14.243Z,11.93
2019-04-16T01:33:14.436Z,11.43
2019-04-16T01:33:57.300Z,11.93
2019-04-16T01:34:53.110Z,11.90
2019-04-16T01:35:56.061Z,11.47
2019-04-16T01:36:45.950Z,11.83
2019-04-16T01:37:46.219Z,11.57
2019-04-16T01:38:35.153Z,11.60
2019-04-16T01:39:17.356Z,11.50
2019-04-16T01:39:48.335Z,11.27
2019-04-16T01:40:28.480Z,12.10
2019-04-16T01:41:05.576Z,12.07
2019-04-16T01:41:40.611Z,12.63
2019-04-16T01:42:15.667Z,12.03
2019-04-16T01:42:54.450Z,11.30
2019-04-16T01:43:27.478Z,12.17
2019-04-16T01:44:02.539Z,11.47
2019-04-16T01:44:37.590Z,11.80
2019-04-16T01:45:12.736Z,11.07
2019-04-16T01:45:47.803Z,11.53
2019-04-16T01:46:22.862Z,11.27
2019-04-16T01:46:58.272Z,12.23
2019-04-16T01:47:37.131Z,11.63
2019-04-16T01:48:10.643Z,11.63
2019-04-16T01:48:45.865Z,11.67
2019-04-16T01:49:20.915Z,11.87
2019-04-16T01:49:55.991Z,11.17
2019-04-16T01:50:31.402Z,11.90
2019-04-16T01:51:06.466Z,11.93
2019-04-16T01:51:41.519Z,11.30
2019-04-16T01:52:18.949Z,12.10
2019-04-16T01:52:53.334Z,11.27
2019-04-16T01:53:28.711Z,10.93
2019-04-16T01:54:03.776Z,12.67
2019-04-16T01:54:38.818Z,12.20
2019-04-16T01:55:13.887Z,12.33
2019-04-16T01:55:49.289Z,12.27
2019-04-16T01:56:27.723Z,11.87
2019-04-16T01:57:01.356Z,12.40
2019-04-16T01:57:36.411Z,11.80
2019-04-16T01:58:27.398Z,11.30
2019-04-16T01:59:05.465Z,11.27
2019-04-16T01:59:42.367Z,11.90
2019-04-16T02:00:17.448Z,12.30
2019-04-16T02:00:52.515Z,12.30
2019-04-16T02:01:27.570Z,12.37
2019-04-16T02:02:02.679Z,12.00
2019-04-16T02:02:38.153Z,11.73
2019-04-16T02:03:17.531Z,11.30
2019-04-16T02:03:50.383Z,11.33
2019-04-16T02:04:25.735Z,11.53
2019-04-16T02:05:00.800Z,11.93
2019-04-16T02:05:36.199Z,11.50
2019-04-16T02:06:11.702Z,11.70
2019-04-16T02:06:46.782Z,11.47
2019-04-16T02:07:21.895Z,11.70
2019-04-16T02:07:59.282Z,11.93
2019-04-16T02:08:33.831Z,12.43
2019-04-16T02:09:21.774Z,11.97
2019-04-16T02:09:45.672Z,12.10
2019-04-16T02:10:22.082Z,11.70
2019-04-16T02:10:57.260Z,12.40
2019-04-16T02:11:32.764Z,11.90
2019-04-16T02:12:12.768Z,11.63
2019-04-16T02:12:44.856Z,12.33
2019-04-16T02:13:20.281Z,12.17
2019-04-16T02:13:56.095Z,11.63
2019-04-16T02:14:31.315Z,11.10
2019-04-16T02:15:08.123Z,12.20
2019-04-16T02:15:43.211Z,12.30
2019-04-16T02:16:18.284Z,12.03
2019-04-16T02:16:56.139Z,11.83
2019-04-16T02:17:31.264Z,11.87
2019-04-16T02:18:06.314Z,10.83
2019-04-16T02:18:41.403Z,11.73
2019-04-16T02:19:16.490Z,12.03
2019-04-16T02:19:51.547Z,12.30
2019-04-16T02:20:26.620Z,12.33
2019-04-16T02:21:01.869Z,12.40
2019-04-16T02:21:38.996Z,12.07
2019-04-16T02:22:14.146Z,12.50
2019-04-16T02:22:49.340Z,11.53
2019-04-16T02:23:24.433Z,11.90
2019-04-16T02:23:59.558Z,12.13
2019-04-16T02:24:34.628Z,11.73
2019-04-16T02:25:09.692Z,12.70
2019-04-16T02:25:44.777Z,13.00
2019-04-16T02:26:20.606Z,12.10
2019-04-16T02:26:56.651Z,12.83
2019-04-16T02:27:31.732Z,11.67
2019-04-16T02:28:06.811Z,11.60
2019-04-16T02:28:42.707Z,11.50
2019-04-16T02:29:17.842Z,12.40
2019-04-16T02:29:53.777Z,11.83
2019-04-16T02:30:28.974Z,11.47
2019-04-16T02:31:04.092Z,12.67
2019-04-16T02:31:39.124Z,12.67
2019-04-16T02:32:14.564Z,12.37
2019-04-16T02:32:49.657Z,12.00
2019-04-16T02:33:24.730Z,12.00
2019-04-16T02:33:59.820Z,12.60
2019-04-16T02:34:35.096Z,12.90
2019-04-16T02:35:10.180Z,10.83
2019-04-16T02:35:46.469Z,12.20
2019-04-16T02:36:21.543Z,11.77
2019-04-16T02:37:00.886Z,12.67
2019-04-16T02:37:36.330Z,12.37
2019-04-16T02:38:13.678Z,12.37
2019-04-16T02:38:53.262Z,11.97
2019-04-16T02:39:46.522Z,12.20
2019-04-16T02:40:02.711Z,12.53
2019-04-16T02:40:38.073Z,12.53
2019-04-16T02:41:13.159Z,12.80
2019-04-16T02:41:48.764Z,12.93
2019-04-16T02:42:30.715Z,11.97
2019-04-16T02:43:06.103Z,11.53
2019-04-16T02:43:41.073Z,12.60
2019-04-16T02:44:17.127Z,12.30
2019-04-16T02:44:52.060Z,11.87
2019-04-16T02:45:27.206Z,11.50
2019-04-16T02:46:02.751Z,11.73
2019-04-16T02:46:37.891Z,12.40
2019-04-16T02:47:13.445Z,11.50
2019-04-16T02:47:48.626Z,12.17
2019-04-16T02:48:23.740Z,12.60
2019-04-16T02:48:58.927Z,12.20
2019-04-16T02:49:34.059Z,12.33
2019-04-16T02:50:12.327Z,12.00
2019-04-16T02:50:50.359Z,12.60
2019-04-16T02:51:47.634Z,11.70
2019-04-16T02:52:52.525Z,11.87
2019-04-16T02:54:00.014Z,11.73
2019-04-16T02:54:40.961Z,12.37
2019-04-16T02:55:43.882Z,11.20
2019-04-16T02:56:52.131Z,12.43
2019-04-16T02:57:52.014Z,12.40
2019-04-16T02:58:35.289Z,13.10
2019-04-16T02:59:14.292Z,12.53
2019-04-16T02:59:49.723Z,11.43
2019-04-16T03:00:49.166Z,12.50
2019-04-16T03:01:37.848Z,11.23
2019-04-16T03:02:34.794Z,11.90
2019-04-16T03:03:13.974Z,11.87
2019-04-16T03:04:00.080Z,11.70
2019-04-16T03:04:40.164Z,12.10
2019-04-16T03:05:29.066Z,12.00
2019-04-16T03:06:05.903Z,12.53
2019-04-16T03:06:41.235Z,11.43
2019-04-16T03:07:16.296Z,12.47
2019-04-16T03:07:51.390Z,12.00
2019-04-16T03:08:26.496Z,11.43
2019-04-16T03:09:01.800Z,12.03
2019-04-16T03:09:40.277Z,12.73
2019-04-16T03:10:16.387Z,12.37
2019-04-16T03:10:51.461Z,11.83
2019-04-16T03:11:26.529Z,12.57
2019-04-16T03:12:01.600Z,11.80
2019-04-16T03:12:37.064Z,13.10
2019-04-16T03:13:12.208Z,11.97
2019-04-16T03:13:47.280Z,12.73
2019-04-16T03:14:22.604Z,11.97
2019-04-16T03:15:00.838Z,12.10
2019-04-16T03:16:09.064Z,12.70
2019-04-16T03:16:57.799Z,11.90
2019-04-16T03:17:42.935Z,12.13
2019-04-16T03:18:20.282Z,12.03
2019-04-16T03:19:04.707Z,12.90
2019-04-16T03:19:41.646Z,12.70
2019-04-16T03:20:17.222Z,12.57
2019-04-16T03:20:52.498Z,13.03
2019-04-16T03:21:29.081Z,12.57
2019-04-16T03:22:04.171Z,13.27
2019-04-16T03:22:39.284Z,12.40
2019-04-16T03:23:14.359Z,12.70
2019-04-16T03:23:49.519Z,13.23
2019-04-16T03:24:24.622Z,12.43
2019-04-16T03:24:59.739Z,12.73
2019-04-16T03:25:34.899Z,12.27
2019-04-16T03:26:09.968Z,12.33
2019-04-16T03:26:47.580Z,12.53
2019-04-16T03:27:22.988Z,12.63
2019-04-16T03:27:58.924Z,11.70
2019-04-16T03:28:34.000Z,12.50
2019-04-16T03:29:09.136Z,12.60
2019-04-16T03:29:44.315Z,11.63
2019-04-16T03:30:19.380Z,13.30
2019-04-16T03:30:54.437Z,12.77
2019-04-16T03:31:29.778Z,12.20
2019-04-16T03:32:05.106Z,13.00
2019-04-16T03:32:51.413Z,13.27
2019-04-16T03:33:26.709Z,12.40
2019-04-16T03:34:02.068Z,12.20
2019-04-16T03:34:37.204Z,13.23
2019-04-16T03:35:12.292Z,12.83
2019-04-16T03:35:47.372Z,13.07
2019-04-16T03:36:22.457Z,13.57
2019-04-16T03:36:58.642Z,12.80
2019-04-16T03:37:34.379Z,12.83
2019-04-16T03:38:09.612Z,12.60
2019-04-16T03:38:44.772Z,12.90
2019-04-16T03:39:19.855Z,13.07
2019-04-16T03:39:54.921Z,12.60
2019-04-16T03:40:30.056Z,12.27
2019-04-16T03:41:05.492Z,12.47
2019-04-16T03:41:40.569Z,12.30
2019-04-16T03:42:15.689Z,12.20
2019-04-16T03:42:50.759Z,13.13
2019-04-16T03:43:25.949Z,13.43
2019-04-16T03:44:03.670Z,13.10
2019-04-16T03:44:37.939Z,13.20
2019-04-16T03:45:13.273Z,14.17
2019-04-16T03:45:48.362Z,12.97
2019-04-16T03:46:23.437Z,13.33
2019-04-16T03:46:58.623Z,12.70
2019-04-16T03:47:33.703Z,12.63
2019-04-16T03:48:08.772Z,12.60
2019-04-16T03:48:43.847Z,12.80
2019-04-16T03:49:18.987Z,12.60
2019-04-16T03:49:56.414Z,12.47
2019-04-16T03:50:32.273Z,12.67
2019-04-16T03:51:07.391Z,12.40
2019-04-16T03:51:42.767Z,12.17
2019-04-16T03:52:17.930Z,12.10
2019-04-16T03:52:52.994Z,13.83
2019-04-16T03:53:28.327Z,12.37
2019-04-16T03:54:04.895Z,12.57
2019-04-16T03:54:41.456Z,12.70
2019-04-16T03:55:16.587Z,12.60
2019-04-16T03:55:54.609Z,12.07
2019-04-16T03:56:30.512Z,11.80
2019-04-16T03:57:05.275Z,12.40
2019-04-16T03:57:40.723Z,12.27
2019-04-16T03:58:15.848Z,12.40
2019-04-16T03:58:50.931Z,11.47
2019-04-16T03:59:26.068Z,12.60
2019-04-16T04:00:01.165Z,13.07
2019-04-16T04:00:36.213Z,12.70
2019-04-16T04:01:14.244Z,12.30
2019-04-16T04:01:48.018Z,12.60
2019-04-16T04:02:23.188Z,13.20
2019-04-16T04:02:58.355Z,13.17
2019-04-16T04:03:33.530Z,12.00
2019-04-16T04:04:08.597Z,12.50
2019-04-16T04:04:43.720Z,13.17
2019-04-16T04:05:18.782Z,12.60
2019-04-16T04:05:57.378Z,11.83
2019-04-16T04:06:32.521Z,13.60
2019-04-16T04:07:09.025Z,13.13
2019-04-16T04:07:45.109Z,12.90
2019-04-16T04:08:21.306Z,11.63
2019-04-16T04:08:56.448Z,13.20
2019-04-16T04:09:31.544Z,12.63
2019-04-16T04:10:07.258Z,14.10
2019-04-16T04:10:42.348Z,12.70
2019-04-16T04:11:17.485Z,12.13
2019-04-16T04:11:52.575Z,12.53
2019-04-16T04:12:27.962Z,13.33
2019-04-16T04:13:04.989Z,12.70
2019-04-16T04:13:41.156Z,12.20
2019-04-16T04:14:21.637Z,12.63
2019-04-16T04:14:54.297Z,12.30
2019-04-16T04:15:30.169Z,12.83
2019-04-16T04:16:06.080Z,12.43
2019-04-16T04:16:41.323Z,13.77
2019-04-16T04:17:16.414Z,13.77
2019-04-16T04:17:51.502Z,13.27
2019-04-16T04:18:26.705Z,13.07
2019-04-16T04:19:01.799Z,11.87
2019-04-16T04:19:36.923Z,12.97
2019-04-16T04:20:14.610Z,12.83
2019-04-16T04:20:50.508Z,13.20
2019-04-16T04:21:26.127Z,14.13
2019-04-16T04:22:01.271Z,12.93
2019-04-16T04:22:36.367Z,12.60
2019-04-16T04:23:11.477Z,12.67
2019-04-16T04:23:46.555Z,12.80
2019-04-16T04:24:21.649Z,13.40
2019-04-16T04:24:56.776Z,12.90
2019-04-16T04:25:36.013Z,13.47
2019-04-16T04:26:10.128Z,13.67
2019-04-16T04:26:45.640Z,13.03
2019-04-16T04:27:21.029Z,13.70
2019-04-16T04:27:56.252Z,13.20
2019-04-16T04:28:32.471Z,13.10
2019-04-16T04:29:07.818Z,13.80
2019-04-16T04:29:46.302Z,13.40
2019-04-16T04:30:25.683Z,13.30
2019-04-16T04:31:00.983Z,13.67
2019-04-16T04:31:36.257Z,13.67
2019-04-16T04:32:11.350Z,13.77
2019-04-16T04:32:47.646Z,13.47
2019-04-16T04:33:43.054Z,13.67
2019-04-16T04:34:17.413Z,13.93
2019-04-16T04:34:52.913Z,13.80
2019-04-16T04:35:28.061Z,14.23
2019-04-16T04:36:03.289Z,13.57
2019-04-16T04:36:38.435Z,13.87
2019-04-16T04:37:14.539Z,13.03
2019-04-16T04:37:49.615Z,14.03
2019-04-16T04:38:24.711Z,13.10
2019-04-16T04:38:59.840Z,13.20
2019-04-16T04:39:35.243Z,13.77
2019-04-16T04:40:12.788Z,12.97
2019-04-16T04:40:50.418Z,13.70
2019-04-16T04:41:24.420Z,13.20
2019-04-16T04:41:59.549Z,12.67
2019-04-16T04:42:36.202Z,13.07
2019-04-16T04:43:11.848Z,12.57
2019-04-16T04:43:46.960Z,14.20
2019-04-16T04:44:22.120Z,14.13
2019-04-16T04:44:57.554Z,13.97
2019-04-16T04:45:32.945Z,13.17
2019-04-16T04:46:12.976Z,14.03
2019-04-16T04:46:46.095Z,13.40
2019-04-16T04:47:22.057Z,13.67
2019-04-16T04:47:57.135Z,13.47
2019-04-16T04:48:32.241Z,13.23
2019-04-16T04:49:07.658Z,12.93
2019-04-16T04:49:42.739Z,13.00
2019-04-16T04:50:18.245Z,12.57
2019-04-16T04:50:53.412Z,13.30
2019-04-16T04:51:28.484Z,13.60
2019-04-16T04:52:03.602Z,14.37
2019-04-16T04:52:38.724Z,14.03
2019-04-16T04:53:15.605Z,13.87
2019-04-16T04:53:51.344Z,13.93
2019-04-16T04:54:26.494Z,13.50
2019-04-16T04:55:01.594Z,13.47
2019-04-16T04:55:36.654Z,13.63
2019-04-16T04:56:11.794Z,13.37
2019-04-16T04:56:46.950Z,14.37
2019-04-16T04:57:22.052Z,13.00
2019-04-16T04:57:57.489Z,13.53
2019-04-16T04:58:34.032Z,14.03
2019-04-16T04:59:09.471Z,12.97
2019-04-16T04:59:44.555Z,13.57
2019-04-16T05:00:20.115Z,13.47
2019-04-16T05:00:55.637Z,13.23
2019-04-16T05:01:31.693Z,13.57
2019-04-16T05:02:06.759Z,13.07
2019-04-16T05:02:43.671Z,13.63
2019-04-16T05:03:35.343Z,13.50
2019-04-16T05:04:22.267Z,13.37
2019-04-16T05:05:24.744Z,13.60
2019-04-16T05:05:57.546Z,13.50
2019-04-16T05:06:35.291Z,13.77
2019-04-16T05:07:10.907Z,14.07
2019-04-16T05:07:46.307Z,13.43
2019-04-16T05:08:21.594Z,13.37
2019-04-16T05:08:57.661Z,14.07
2019-04-16T05:09:36.394Z,13.63
2019-04-16T05:10:10.574Z,13.10
2019-04-16T05:10:58.448Z,14.40
2019-04-16T05:11:22.482Z,14.10
2019-04-16T05:11:57.571Z,14.37
2019-04-16T05:12:32.629Z,13.53
2019-04-16T05:13:07.718Z,14.33
2019-04-16T05:13:42.787Z,14.17
2019-04-16T05:14:17.957Z,13.23
2019-04-16T05:14:57.507Z,13.73
2019-04-16T05:15:32.315Z,13.83
2019-04-16T05:16:07.401Z,14.17
2019-04-16T05:16:42.492Z,13.93
2019-04-16T05:17:17.748Z,13.17
2019-04-16T05:17:53.007Z,13.47
2019-04-16T05:18:28.100Z,12.60
2019-04-16T05:19:03.586Z,13.77
2019-04-16T05:19:38.642Z,12.87
2019-04-16T05:20:15.398Z,13.00
2019-04-16T05:20:50.778Z,13.93
2019-04-16T05:21:25.843Z,13.63
2019-04-16T05:22:00.907Z,13.33
2019-04-16T05:22:35.969Z,13.60
2019-04-16T05:23:11.056Z,13.70
2019-04-16T05:23:46.149Z,13.87
2019-04-16T05:24:21.227Z,13.87
2019-04-16T05:25:00.856Z,13.83
2019-04-16T05:25:34.364Z,13.40
2019-04-16T05:26:09.917Z,14.07
2019-04-16T05:26:45.250Z,13.37
2019-04-16T05:27:20.327Z,14.27
2019-04-16T05:27:55.431Z,12.70
2019-04-16T05:28:30.548Z,13.37
2019-04-16T05:29:16.139Z,13.87
2019-04-16T05:29:49.653Z,13.63
2019-04-16T05:30:24.830Z,13.63
2019-04-16T05:30:59.933Z,13.93
2019-04-16T05:31:35.291Z,13.70
2019-04-16T05:32:10.375Z,13.63
2019-04-16T05:32:45.448Z,13.13
2019-04-16T05:33:20.782Z,12.90
2019-04-16T05:33:59.480Z,14.70
2019-04-16T05:34:34.621Z,13.53
2019-04-16T05:35:10.824Z,13.67
2019-04-16T05:35:46.266Z,14.27
2019-04-16T05:36:21.914Z,13.93
2019-04-16T05:36:57.242Z,13.50
2019-04-16T05:37:32.324Z,13.53
2019-04-16T05:38:07.443Z,13.23
2019-04-16T05:38:42.684Z,14.13
2019-04-16T05:39:18.137Z,12.77
2019-04-16T05:39:58.551Z,12.80
2019-04-16T05:40:34.425Z,13.90
2019-04-16T05:41:13.611Z,12.70
2019-04-16T05:41:45.134Z,13.10
2019-04-16T05:42:22.392Z,13.30
2019-04-16T05:42:58.972Z,13.90
2019-04-16T05:43:33.902Z,12.77
2019-04-16T05:44:09.078Z,12.97
2019-04-16T05:44:44.158Z,13.20
2019-04-16T05:45:19.221Z,14.07
2019-04-16T05:45:54.555Z,13.47
2019-04-16T05:46:29.640Z,12.97
2019-04-16T05:47:04.712Z,13.30
2019-04-16T05:47:39.806Z,13.23
2019-04-16T05:48:14.886Z,13.23
2019-04-16T05:48:51.391Z,13.60
2019-04-16T05:49:26.834Z,12.83
2019-04-16T05:50:01.911Z,13.90
2019-04-16T05:50:37.009Z,13.77
2019-04-16T05:51:12.103Z,13.00
2019-04-16T05:51:47.176Z,13.58
2019-04-16T05:52:22.288Z,13.93
2019-04-16T05:52:57.724Z,13.70
2019-04-16T05:53:32.804Z,13.33
2019-04-16T05:54:25.579Z,13.73
2019-04-16T05:55:08.329Z,13.20
2019-04-16T05:55:51.223Z,14.20
2019-04-16T05:56:39.906Z,12.43
2019-04-16T05:57:18.774Z,13.33
2019-04-16T05:57:57.897Z,13.07
2019-04-16T05:58:31.598Z,13.90
2019-04-16T05:59:07.045Z,14.73
2019-04-16T05:59:42.138Z,13.37
2019-04-16T06:00:24.172Z,14.03
2019-04-16T06:01:04.039Z,12.90
2019-04-16T06:01:46.266Z,14.97
2019-04-16T06:02:26.397Z,13.23
2019-04-16T06:03:01.475Z,13.27
2019-04-16T06:03:36.560Z,14.03
2019-04-16T06:04:11.655Z,13.33
2019-04-16T06:04:46.722Z,14.00
2019-04-16T06:05:26.803Z,12.70
2019-04-16T06:05:59.361Z,12.30
2019-04-16T06:06:35.103Z,14.30
2019-04-16T06:07:10.363Z,12.93
2019-04-16T06:07:45.694Z,13.47
2019-04-16T06:08:20.751Z,12.73
2019-04-16T06:08:56.214Z,13.60
2019-04-16T06:09:31.589Z,13.57
2019-04-16T06:10:07.361Z,13.67
2019-04-16T06:10:42.567Z,13.83
2019-04-16T06:11:28.675Z,13.07
2019-04-16T06:11:54.415Z,13.37
2019-04-16T06:12:40.210Z,13.10
2019-04-16T06:13:41.302Z,12.87
2019-04-16T06:14:25.442Z,13.40
2019-04-16T06:15:06.486Z,12.33
2019-04-16T06:16:04.318Z,13.03
2019-04-16T06:16:58.488Z,14.00
2019-04-16T06:17:51.536Z,13.73
2019-04-16T06:18:44.928Z,13.50
2019-04-16T06:19:33.108Z,13.13
2019-04-16T06:20:28.953Z,13.67
2019-04-16T06:21:17.938Z,13.77
2019-04-16T06:22:11.099Z,13.83
2019-04-16T06:23:17.178Z,13.57
2019-04-16T06:23:55.101Z,12.97
2019-04-16T06:24:40.088Z,13.40
2019-04-16T06:25:33.043Z,13.90
2019-04-16T06:26:26.938Z,14.10
2019-04-16T06:27:08.112Z,13.90
2019-04-16T06:27:54.234Z,13.27
2019-04-16T06:28:40.123Z,13.90
2019-04-16T06:29:49.367Z,14.17
2019-04-16T06:30:33.764Z,13.07
2019-04-16T06:31:15.899Z,12.37
2019-04-16T06:32:08.366Z,13.90
2019-04-16T06:33:06.131Z,13.40
2019-04-16T06:33:49.814Z,13.10
2019-04-16T06:34:42.614Z,13.27
2019-04-16T06:35:49.647Z,12.20
2019-04-16T06:36:47.944Z,12.20
2019-04-16T06:37:38.570Z,13.00
2019-04-16T06:38:22.331Z,12.73
2019-04-16T06:39:19.406Z,13.20
2019-04-16T06:40:04.489Z,13.67
2019-04-16T06:40:47.712Z,13.97
2019-04-16T06:41:41.930Z,12.90
2019-04-16T06:42:40.020Z,13.57
2019-04-16T06:43:37.011Z,13.10
2019-04-16T06:44:15.969Z,12.97
2019-04-16T06:44:53.472Z,12.90
2019-04-16T06:45:46.683Z,13.37
2019-04-16T06:46:41.482Z,13.67
2019-04-16T06:47:42.829Z,14.23
2019-04-16T06:48:23.697Z,12.93
2019-04-16T06:49:17.686Z,13.33
2019-04-16T06:50:30.229Z,13.43
2019-04-16T06:51:19.992Z,13.37
2019-04-16T06:52:29.330Z,13.00
2019-04-16T06:53:10.091Z,13.47
2019-04-16T06:54:16.827Z,12.53
2019-04-16T06:55:17.541Z,14.07
2019-04-16T06:56:08.791Z,13.73
2019-04-16T06:56:50.438Z,13.70
2019-04-16T06:57:57.224Z,14.63
2019-04-16T06:58:50.833Z,13.83
2019-04-16T06:59:26.770Z,14.03
2019-04-16T07:00:22.648Z,14.57
2019-04-16T07:01:17.885Z,14.27
2019-04-16T07:02:25.013Z,13.80
2019-04-16T07:03:27.385Z,14.13
2019-04-16T07:04:06.881Z,13.60
2019-04-16T07:05:01.315Z,14.67
2019-04-16T07:06:03.687Z,13.47
2019-04-16T07:07:01.038Z,13.63
2019-04-16T07:07:53.799Z,14.87
2019-04-16T07:08:49.830Z,13.90
2019-04-16T07:09:46.029Z,14.27
2019-04-16T07:10:25.474Z,14.13
2019-04-16T07:11:01.744Z,13.97
2019-04-16T07:11:38.633Z,13.33
2019-04-16T07:12:16.886Z,13.87
2019-04-16T07:12:52.618Z,13.43
2019-04-16T07:13:28.043Z,13.60
2019-04-16T07:14:03.363Z,13.43
2019-04-16T07:14:38.443Z,13.93
2019-04-16T07:15:13.531Z,14.20
2019-04-16T07:15:48.603Z,14.20
2019-04-16T07:16:28.131Z,14.53
2019-04-16T07:17:00.922Z,14.10
2019-04-16T07:17:36.098Z,13.60
2019-04-16T07:18:11.152Z,12.57
2019-04-16T07:18:46.397Z,13.07
2019-04-16T07:19:21.479Z,13.37
2019-04-16T07:19:56.547Z,14.53
2019-04-16T07:20:31.583Z,13.43
2019-04-16T07:21:07.698Z,14.10
2019-04-16T07:21:42.764Z,13.37
2019-04-16T07:22:21.213Z,13.00
2019-04-16T07:22:54.607Z,12.87
2019-04-16T07:23:29.706Z,13.67
2019-04-16T07:24:05.041Z,13.53
2019-04-16T07:24:40.389Z,13.97
2019-04-16T07:25:16.020Z,13.53
2019-04-16T07:25:51.661Z,12.63
2019-04-16T07:26:26.744Z,12.03
2019-04-16T07:27:01.940Z,13.20
2019-04-16T07:27:43.629Z,14.20
2019-04-16T07:28:29.601Z,14.07
2019-04-16T07:29:23.193Z,13.87
2019-04-16T07:30:06.904Z,13.30
2019-04-16T07:30:48.399Z,13.80
2019-04-16T07:31:34.181Z,13.30
2019-04-16T07:32:42.988Z,13.47
2019-04-16T07:33:27.454Z,13.23
2019-04-16T07:34:20.580Z,13.73
2019-04-16T07:35:17.781Z,13.03
2019-04-16T07:35:56.760Z,13.60
2019-04-16T07:36:56.912Z,13.50
2019-04-16T07:37:45.663Z,12.57
2019-04-16T07:38:25.723Z,13.07
2019-04-16T07:39:37.218Z,12.73
2019-04-16T07:40:24.109Z,12.03
2019-04-16T07:41:18.455Z,12.33
2019-04-16T07:42:18.571Z,12.23
2019-04-16T07:43:00.419Z,12.07
2019-04-16T07:43:53.965Z,12.43
2019-04-16T07:44:47.332Z,12.60
2019-04-16T07:45:42.677Z,12.63
2019-04-16T07:46:36.008Z,13.40
2019-04-16T07:47:24.177Z,12.00
2019-04-16T07:48:06.849Z,12.53
2019-04-16T07:48:51.475Z,12.97
2019-04-16T07:49:48.417Z,12.90
2019-04-16T07:50:38.167Z,12.13
2019-04-16T07:51:27.746Z,13.27
2019-04-16T07:52:12.289Z,11.97
2019-04-16T07:53:13.552Z,12.80
2019-04-16T07:54:04.644Z,13.07
2019-04-16T07:54:57.704Z,12.70
2019-04-16T07:55:44.243Z,12.77
2019-04-16T07:56:22.012Z,12.93
2019-04-16T07:56:57.408Z,13.27
2019-04-16T07:57:32.482Z,12.77
2019-04-16T07:58:07.553Z,12.27
2019-04-16T07:58:42.627Z,12.33
2019-04-16T07:59:17.692Z,12.60
2019-04-16T07:59:53.031Z,12.33
2019-04-16T08:00:28.202Z,13.33
2019-04-16T08:01:03.270Z,13.03
2019-04-16T08:01:38.372Z,12.53
2019-04-16T08:02:13.434Z,12.15
2019-04-16T08:02:50.784Z,12.90
2019-04-16T08:03:26.811Z,12.60
2019-04-16T08:04:03.153Z,12.43
2019-04-16T08:04:38.454Z,13.32
2019-04-16T08:05:13.515Z,12.83
2019-04-16T08:05:48.584Z,12.80
2019-04-16T08:06:23.678Z,13.48
2019-04-16T08:06:59.001Z,13.58
2019-04-16T08:07:35.486Z,13.13
2019-04-16T08:08:10.563Z,13.28
2019-04-16T08:08:45.817Z,12.45
2019-04-16T08:09:20.885Z,13.22
2019-04-16T08:10:01.705Z,13.62
2019-04-16T08:10:33.732Z,12.90
2019-04-16T08:11:08.783Z,13.32
2019-04-16T08:11:43.835Z,14.10
2019-04-16T08:12:29.877Z,12.70
2019-04-16T08:13:08.122Z,13.75
2019-04-16T08:13:43.540Z,13.88
2019-04-16T08:14:18.936Z,13.10
2019-04-16T08:14:54.076Z,13.15
2019-04-16T08:15:29.131Z,12.28
2019-04-16T08:16:04.335Z,12.68
2019-04-16T08:16:47.160Z,11.85
2019-04-16T08:17:16.522Z,12.18
2019-04-16T08:17:51.587Z,12.50
2019-04-16T08:18:26.697Z,13.48
2019-04-16T08:19:02.156Z,14.10
2019-04-16T08:19:37.775Z,13.20
2019-04-16T08:20:14.069Z,13.00
2019-04-16T08:21:00.392Z,13.20
2019-04-16T08:21:26.180Z,12.40
2019-04-16T08:22:02.373Z,12.70